createdAt,value
2022-08-24T00:00:37.729Z,5.88
2022-08-24T00:02:11.879Z,5.47
2022-08-24T00:03:45.786Z,5.47
2022-08-24T00:05:20.700Z,7.82
2022-08-24T00:06:53.096Z,5.60
2022-08-24T00:08:25.573Z,5.93
2022-08-24T00:09:58.131Z,5.90
2022-08-24T00:11:30.266Z,5.80
2022-08-24T00:13:02.433Z,5.53
2022-08-24T00:14:34.675Z,5.47
2022-08-24T00:16:08.518Z,5.18
2022-08-24T00:17:41.148Z,5.95
2022-08-24T00:19:13.409Z,5.28
2022-08-24T00:20:46.009Z,6.18
2022-08-24T00:22:18.211Z,5.93
2022-08-24T00:23:50.320Z,5.93
2022-08-24T00:25:22.424Z,5.70
2022-08-24T00:26:55.070Z,5.82
2022-08-24T00:28:27.217Z,5.60
2022-08-24T00:29:59.247Z,5.10
2022-08-24T02:53:30.377Z,6.47
2022-08-24T02:55:02.477Z,6.05
2022-08-24T02:56:34.833Z,5.93
2022-08-24T02:58:07.365Z,5.77
2022-08-24T02:59:40.134Z,6.20
2022-08-24T03:01:13.623Z,6.03
2022-08-24T03:02:50.319Z,6.10
2022-08-24T03:04:22.903Z,6.10
2022-08-24T03:05:54.966Z,6.53
2022-08-24T03:07:26.997Z,5.80
2022-08-24T03:08:59.013Z,6.18
2022-08-24T03:10:31.365Z,6.15
2022-08-24T03:12:04.238Z,6.63
2022-08-24T03:47:15.422Z,6.55
2022-08-24T03:48:49.049Z,6.50
2022-08-24T03:50:21.473Z,6.07
2022-08-24T03:51:53.718Z,6.17
2022-08-24T03:53:25.929Z,6.53
2022-08-24T03:54:58.018Z,6.10
2022-08-24T05:13:58.975Z,11.30
2022-08-24T05:15:31.728Z,6.18
2022-08-24T05:17:04.018Z,6.10
2022-08-24T05:18:36.226Z,6.65
2022-08-24T05:20:09.749Z,6.18
2022-08-24T05:21:44.692Z,6.18
2022-08-24T05:23:16.930Z,6.32
2022-08-24T05:24:49.304Z,6.07
2022-08-24T05:26:25.969Z,6.40
2022-08-24T05:27:58.606Z,6.43
2022-08-24T05:29:34.038Z,5.82
2022-08-24T05:31:13.495Z,6.68
2022-08-24T05:32:45.733Z,5.70
2022-08-24T05:34:19.019Z,6.45
2022-08-24T05:37:23.066Z,6.05
2022-08-24T05:38:57.433Z,5.80
2022-08-24T05:40:33.313Z,6.00
2022-08-24T05:42:06.720Z,6.18
2022-08-24T05:43:39.799Z,6.63
2022-08-24T05:45:13.091Z,5.53
2022-08-24T05:48:17.648Z,5.65
2022-08-24T05:49:53.452Z,5.60
2022-08-24T05:51:25.794Z,6.25
2022-08-24T05:52:57.988Z,5.80
2022-08-24T05:54:30.164Z,6.05
2022-08-24T05:56:07.143Z,6.00
2022-08-24T05:57:39.324Z,6.15
2022-08-24T05:59:11.875Z,6.38
2022-08-24T06:00:47.199Z,6.00
2022-08-24T06:02:20.457Z,6.60
2022-08-24T06:05:25.486Z,6.18
2022-08-24T06:06:57.988Z,6.15
2022-08-24T06:08:31.568Z,6.32
2022-08-24T06:10:32.794Z,6.05
2022-08-24T06:11:56.391Z,6.43
2022-08-24T06:13:29.357Z,6.00
2022-08-24T06:15:01.473Z,5.90
2022-08-24T06:16:36.653Z,6.22
2022-08-24T06:18:09.164Z,6.13
2022-08-24T06:19:41.522Z,5.38
2022-08-24T06:21:17.533Z,5.25
2022-08-24T06:22:50.886Z,6.20
2022-08-24T06:24:46.556Z,6.05
2022-08-24T06:26:39.033Z,6.40
2022-08-24T06:28:11.294Z,6.53
2022-08-24T06:29:43.339Z,6.60
2022-08-24T06:31:16.259Z,5.60
2022-08-24T06:32:48.419Z,6.05
2022-08-24T06:34:21.038Z,6.30
2022-08-24T06:35:53.563Z,5.75
2022-08-24T06:37:29.336Z,6.40
2022-08-24T06:39:02.682Z,6.57
2022-08-24T06:40:34.889Z,6.72
2022-08-24T06:42:07.376Z,6.07
2022-08-24T06:43:39.670Z,6.32
2022-08-24T06:45:12.458Z,6.50
2022-08-24T06:46:44.926Z,5.95
2022-08-24T06:48:17.701Z,6.40
2022-08-24T06:49:49.807Z,6.40
2022-08-24T06:51:24.008Z,5.82
2022-08-24T06:52:56.164Z,6.72
2022-08-24T06:54:28.605Z,6.50
2022-08-24T06:56:01.453Z,6.30
2022-08-24T06:57:33.513Z,6.72
2022-08-24T06:59:06.300Z,7.28
2022-08-24T07:02:13.328Z,7.40
2022-08-24T07:03:45.976Z,6.65
2022-08-24T07:05:18.547Z,6.20
2022-08-24T07:06:51.186Z,6.78
2022-08-24T07:08:23.680Z,6.60
2022-08-24T07:09:55.887Z,6.28
2022-08-24T07:11:28.250Z,6.35
2022-08-24T07:13:00.750Z,6.72
2022-08-24T07:14:32.934Z,8.00
2022-08-24T07:16:05.367Z,7.78
2022-08-24T07:17:37.727Z,7.68
2022-08-24T07:19:09.761Z,7.27
2022-08-24T07:20:43.342Z,7.13
2022-08-24T07:24:01.436Z,7.28
2022-08-24T07:25:34.382Z,7.28
2022-08-24T07:27:07.394Z,7.22
2022-08-24T07:28:40.692Z,7.53
2022-08-24T07:30:28.020Z,7.15
2022-08-24T07:32:01.832Z,7.65
2022-08-24T07:33:34.259Z,8.15
2022-08-24T07:35:07.155Z,7.53
2022-08-24T07:36:44.565Z,8.68
2022-08-24T07:38:17.344Z,8.20
2022-08-24T07:39:49.587Z,8.68
2022-08-24T07:43:18.329Z,7.60
2022-08-24T07:44:50.981Z,7.40
2022-08-24T07:46:24.781Z,7.47
2022-08-24T07:48:05.171Z,7.10
2022-08-24T07:49:39.637Z,8.00
2022-08-24T07:51:14.668Z,7.50
2022-08-24T07:52:47.591Z,7.68
2022-08-24T07:54:21.184Z,7.15
2022-08-24T07:55:55.646Z,7.68
2022-08-24T07:57:28.117Z,6.97
2022-08-24T07:59:00.765Z,6.85
2022-08-24T08:00:33.293Z,6.55
2022-08-24T08:02:06.198Z,6.90
2022-08-24T08:03:38.686Z,7.13
2022-08-24T08:05:11.085Z,6.80
2022-08-24T08:06:43.425Z,7.03
2022-08-24T08:08:16.299Z,7.53
2022-08-24T08:09:49.941Z,7.47
2022-08-24T08:11:22.259Z,6.90
2022-08-24T08:12:54.306Z,6.40
2022-08-24T08:14:26.814Z,8.13
2022-08-24T08:16:00.193Z,8.90
2022-08-24T08:17:33.246Z,9.02
2022-08-24T08:19:12.995Z,9.85
2022-08-24T08:20:45.270Z,9.88
2022-08-24T08:22:35.994Z,9.85
2022-08-24T08:24:20.504Z,9.25
2022-08-24T08:25:55.103Z,10.02
2022-08-24T08:27:28.064Z,9.13
2022-08-24T08:29:00.511Z,9.18
2022-08-24T08:30:33.404Z,9.38
2022-08-24T08:32:06.016Z,8.88
2022-08-24T08:33:38.492Z,8.68
2022-08-24T08:35:11.141Z,9.85
2022-08-24T08:36:44.219Z,9.32
2022-08-24T08:38:16.908Z,9.20
2022-08-24T08:39:49.256Z,9.35
2022-08-24T08:41:27.398Z,9.50
2022-08-24T08:43:07.716Z,9.60
2022-08-24T08:44:58.737Z,9.20
2022-08-24T08:46:58.260Z,9.13
2022-08-24T08:48:40.521Z,9.32
2022-08-24T08:50:19.435Z,9.35
2022-08-24T08:52:25.165Z,10.25
2022-08-24T08:54:15.735Z,9.48
2022-08-24T08:56:04.377Z,9.70
2022-08-24T08:57:47.545Z,9.63
2022-08-24T08:59:38.204Z,8.80
2022-08-24T09:01:46.535Z,9.50
2022-08-24T09:03:40.667Z,8.88
2022-08-24T09:05:28.026Z,9.38
2022-08-24T09:07:09.870Z,9.80
2022-08-24T09:08:51.878Z,9.38
2022-08-24T09:10:33.006Z,9.95
2022-08-24T09:12:20.881Z,9.35
2022-08-24T09:14:07.583Z,9.35
2022-08-24T09:16:10.716Z,9.82
2022-08-24T09:18:14.335Z,8.65
2022-08-24T09:20:07.894Z,9.60
2022-08-24T09:21:54.294Z,9.10
2022-08-24T09:23:49.970Z,9.38
2022-08-24T09:25:29.899Z,9.00
2022-08-24T09:27:23.217Z,10.55
2022-08-24T09:29:12.484Z,9.05
2022-08-24T09:31:24.119Z,9.82
2022-08-24T09:33:15.847Z,10.38
2022-08-24T09:35:26.645Z,10.23
2022-08-24T09:37:12.872Z,10.05
2022-08-24T09:38:52.392Z,9.85
2022-08-24T09:41:01.864Z,8.63
2022-08-24T09:43:11.098Z,9.68
2022-08-24T09:45:05.983Z,9.95
2022-08-24T09:46:49.676Z,9.93
2022-08-24T09:50:21.330Z,9.35
2022-08-24T09:52:09.581Z,9.60
2022-08-24T09:53:55.301Z,9.55
2022-08-24T09:55:45.622Z,9.48
2022-08-24T09:57:59.352Z,10.15
2022-08-24T09:59:56.143Z,9.95
2022-08-24T10:01:37.054Z,9.35
2022-08-24T10:03:16.304Z,9.80
2022-08-24T10:05:02.593Z,9.02
2022-08-24T10:06:46.535Z,9.30
2022-08-24T10:08:49.236Z,9.32
2022-08-24T10:10:40.117Z,9.20
2022-08-24T10:12:52.908Z,9.57
2022-08-24T10:14:56.535Z,9.10
2022-08-24T10:16:40.885Z,9.70
2022-08-24T10:18:50.851Z,9.80
2022-08-24T10:20:26.839Z,9.55
2022-08-24T10:22:08.361Z,9.43
2022-08-24T10:24:02.293Z,9.45
2022-08-24T10:25:47.419Z,9.77
2022-08-24T10:27:43.936Z,9.07
2022-08-24T10:29:49.989Z,8.98
2022-08-24T10:31:54.686Z,8.10
2022-08-24T10:33:29.929Z,8.80
2022-08-24T10:35:14.221Z,8.65
2022-08-24T10:37:14.244Z,9.43
2022-08-24T10:39:28.361Z,8.65
2022-08-24T10:41:39.316Z,8.98
2022-08-24T10:43:40.699Z,8.55
2022-08-24T10:45:18.034Z,8.63
2022-08-24T10:46:58.482Z,8.85
2022-08-24T10:48:33.263Z,8.20
2022-08-24T10:50:45.401Z,8.30
2022-08-24T10:52:55.852Z,8.82
2022-08-24T10:54:28.316Z,8.23
2022-08-24T10:56:16.947Z,8.55
2022-08-24T10:58:08.021Z,8.35
2022-08-24T10:59:51.691Z,8.65
2022-08-24T11:01:32.387Z,9.23
2022-08-24T11:03:14.692Z,8.57
2022-08-24T11:05:00.025Z,9.10
2022-08-24T11:06:37.330Z,9.15
2022-08-24T11:08:19.056Z,8.35
2022-08-24T11:09:56.303Z,8.00
2022-08-24T11:11:40.442Z,7.68
2022-08-24T11:13:19.000Z,7.47
2022-08-24T11:14:51.882Z,7.82
2022-08-24T11:16:33.253Z,6.78
2022-08-24T11:18:05.935Z,7.25
2022-08-24T11:19:38.376Z,7.55
2022-08-24T11:21:46.816Z,7.87
2022-08-24T11:23:25.527Z,7.78
2022-08-24T11:25:35.424Z,8.10
2022-08-24T11:27:25.386Z,7.20
2022-08-24T11:29:01.862Z,8.82
2022-08-24T11:30:39.767Z,7.90
2022-08-24T11:32:26.931Z,7.57
2022-08-24T11:34:11.586Z,8.07
2022-08-24T11:35:43.736Z,7.53
2022-08-24T11:37:16.404Z,8.30
2022-08-24T11:44:31.816Z,7.63
2022-08-24T11:46:32.013Z,20.98
2022-08-24T11:48:26.855Z,12.98
2022-08-24T11:50:27.639Z,14.88
2022-08-24T11:52:05.990Z,8.70
2022-08-24T11:53:50.728Z,7.55
2022-08-24T11:55:47.044Z,7.82
2022-08-24T11:57:27.068Z,10.30
2022-08-24T11:59:25.872Z,15.82
2022-08-24T12:01:07.721Z,7.90
2022-08-24T12:02:49.857Z,7.88
2022-08-24T12:04:22.501Z,7.47
2022-08-24T12:06:04.283Z,8.50
2022-08-24T12:07:59.554Z,8.43
2022-08-24T12:09:57.933Z,9.10
2022-08-24T12:12:14.981Z,9.98
2022-08-24T12:14:01.615Z,8.95
2022-08-24T12:15:43.534Z,9.23
2022-08-24T12:17:27.530Z,8.57
2022-08-24T12:19:08.970Z,8.88
2022-08-24T12:20:48.388Z,8.80
2022-08-24T12:22:21.606Z,8.90
2022-08-24T12:25:52.974Z,8.63
2022-08-24T12:27:33.623Z,11.13
2022-08-24T12:29:16.662Z,19.52
2022-08-24T12:30:49.776Z,10.32
2022-08-24T13:08:42.305Z,9.38
2022-08-24T13:18:10.351Z,7.90
2022-08-24T13:19:45.740Z,8.88
2022-08-24T13:21:37.616Z,8.27
2022-08-24T13:23:12.733Z,7.95
2022-08-24T13:24:59.376Z,8.35
2022-08-24T13:26:32.892Z,8.15
2022-08-24T13:28:09.867Z,8.40
2022-08-24T13:29:45.940Z,8.32
2022-08-24T13:31:36.481Z,8.52
2022-08-24T13:33:34.577Z,8.77
2022-08-24T13:35:49.008Z,8.70
2022-08-24T13:39:15.709Z,8.50
2022-08-24T13:40:52.095Z,8.38
2022-08-24T13:42:36.501Z,8.50
2022-08-24T13:44:49.460Z,9.55
2022-08-24T13:46:25.299Z,8.68
2022-08-24T13:48:00.712Z,8.10
2022-08-24T13:50:02.215Z,8.05
2022-08-24T13:51:46.184Z,8.13
2022-08-24T13:53:37.222Z,7.97
2022-08-24T13:56:04.724Z,8.23
2022-08-24T13:57:46.711Z,7.80
2022-08-24T13:59:43.861Z,7.88
2022-08-24T14:01:34.508Z,8.27
2022-08-24T14:03:24.711Z,8.02
2022-08-24T14:05:04.623Z,7.85
2022-08-24T14:06:42.647Z,8.32
2022-08-24T14:08:26.247Z,7.90
2022-08-24T14:10:04.496Z,7.28
2022-08-24T14:11:45.541Z,7.88
2022-08-24T14:13:50.356Z,7.20
2022-08-24T14:15:51.535Z,7.90
2022-08-24T14:17:53.783Z,7.97
2022-08-24T14:20:05.817Z,7.40
2022-08-24T14:21:46.085Z,8.07
2022-08-24T14:23:36.824Z,8.25
2022-08-24T14:25:15.143Z,7.95
2022-08-24T14:26:52.324Z,8.45
2022-08-24T14:28:25.223Z,7.07
2022-08-24T14:30:20.090Z,8.27
2022-08-24T14:32:00.012Z,7.82
2022-08-24T14:33:50.942Z,7.78
2022-08-24T14:35:47.551Z,8.07
2022-08-24T14:37:41.217Z,8.90
2022-08-24T14:39:42.175Z,7.10
2022-08-24T14:41:47.557Z,8.25
2022-08-24T14:43:31.422Z,8.07
2022-08-24T14:45:10.767Z,7.82
2022-08-24T14:47:05.695Z,7.78
2022-08-24T14:48:54.905Z,7.28
2022-08-24T14:50:36.845Z,7.20
2022-08-24T14:52:22.262Z,8.27
2022-08-24T14:54:04.248Z,7.90
2022-08-24T14:55:48.059Z,8.50
2022-08-24T14:57:45.252Z,7.40
2022-08-24T15:01:39.410Z,7.53
2022-08-24T15:03:52.599Z,8.02
2022-08-24T15:05:41.322Z,7.88
2022-08-24T15:07:30.807Z,7.32
2022-08-24T15:09:12.073Z,7.60
2022-08-24T15:10:47.108Z,7.68
2022-08-24T15:12:38.248Z,8.45
2022-08-24T15:14:30.068Z,7.57
2022-08-24T15:16:17.500Z,7.30
2022-08-24T15:18:09.669Z,7.65
2022-08-24T15:19:48.167Z,7.40
2022-08-24T15:21:44.655Z,7.60
2022-08-24T15:23:26.025Z,6.82
2022-08-24T15:25:07.697Z,7.10
2022-08-24T15:26:51.053Z,7.75
2022-08-24T15:28:29.889Z,7.55
2022-08-24T15:30:06.199Z,6.97
2022-08-24T15:31:39.446Z,7.22
2022-08-24T15:34:58.581Z,7.60
2022-08-24T15:36:33.503Z,7.32
2022-08-24T15:38:25.196Z,6.78
2022-08-24T15:40:02.524Z,7.30
2022-08-24T15:41:39.243Z,8.75
2022-08-24T15:43:12.303Z,8.15
2022-08-24T15:44:48.038Z,7.80
2022-08-24T15:46:42.336Z,7.50
2022-08-24T15:48:18.193Z,7.40
2022-08-24T15:50:00.455Z,7.70
2022-08-24T15:51:47.135Z,7.45
2022-08-24T15:53:29.972Z,7.88
2022-08-24T15:55:04.772Z,7.88
2022-08-24T15:56:45.169Z,7.28
2022-08-24T15:58:27.348Z,7.82
2022-08-24T16:00:40.510Z,8.45
2022-08-24T16:02:31.289Z,7.45
2022-08-24T16:04:06.156Z,7.78
2022-08-24T16:05:38.780Z,7.63
2022-08-24T16:07:23.773Z,7.82
2022-08-24T16:09:05.567Z,8.98
2022-08-24T16:10:50.976Z,8.05
2022-08-24T16:12:23.702Z,8.52
2022-08-24T16:13:56.071Z,7.63
2022-08-24T16:15:28.205Z,9.50
2022-08-24T16:17:02.408Z,9.02
2022-08-24T16:18:46.584Z,8.05
2022-08-24T16:20:24.647Z,8.60
2022-08-24T16:22:03.648Z,8.68
2022-08-24T16:23:36.488Z,8.75
2022-08-24T16:25:23.892Z,8.27
2022-08-24T16:27:15.283Z,8.98
2022-08-24T16:28:48.245Z,8.73
2022-08-24T16:30:23.413Z,9.60
2022-08-24T16:32:05.398Z,8.85
2022-08-24T16:33:44.254Z,8.43
2022-08-24T16:35:21.202Z,8.68
2022-08-24T16:36:53.568Z,8.57
2022-08-24T16:38:30.144Z,8.83
2022-08-24T16:40:02.450Z,8.82
2022-08-24T16:41:39.087Z,8.93
2022-08-24T16:43:11.376Z,8.27
2022-08-24T16:44:44.767Z,8.82
2022-08-24T16:46:22.682Z,9.38
2022-08-24T16:47:54.940Z,9.10
2022-08-24T16:49:27.027Z,8.25
2022-08-24T16:50:59.662Z,8.73
2022-08-24T16:52:31.994Z,8.50
2022-08-24T16:54:04.454Z,8.55
2022-08-24T16:55:36.650Z,9.38
2022-08-24T16:57:17.616Z,8.23
2022-08-24T16:58:49.728Z,9.18
2022-08-24T17:00:22.582Z,8.00
2022-08-24T17:01:54.873Z,8.60
2022-08-24T17:03:27.216Z,9.32
2022-08-24T17:04:59.486Z,9.40
2022-08-24T17:06:31.849Z,9.57
2022-08-24T17:08:04.741Z,8.95
2022-08-24T17:09:42.007Z,9.63
2022-08-24T17:11:15.047Z,8.35
2022-08-24T17:12:47.083Z,8.65
2022-08-24T17:15:53.919Z,8.95
2022-08-24T17:17:26.331Z,9.60
2022-08-24T17:18:59.271Z,8.70
2022-08-24T17:20:31.902Z,8.60
2022-08-24T17:22:05.372Z,9.52
2022-08-24T17:23:37.790Z,8.63
2022-08-24T17:25:09.986Z,9.18
2022-08-24T17:26:45.660Z,8.90
2022-08-24T17:28:20.808Z,8.88
2022-08-24T17:29:53.437Z,8.83
2022-08-24T17:31:29.618Z,8.43
2022-08-24T17:33:03.948Z,8.90
2022-08-24T17:34:36.260Z,9.30
2022-08-24T17:36:15.589Z,9.50
2022-08-24T17:37:50.207Z,8.45
2022-08-24T17:39:26.660Z,9.07
2022-08-24T17:41:01.345Z,8.90
2022-08-24T17:42:50.364Z,8.68
2022-08-24T17:44:26.683Z,8.32
2022-08-24T17:45:59.816Z,9.02
2022-08-24T17:49:05.688Z,11.15
2022-08-24T17:52:10.104Z,9.50
2022-08-24T17:53:42.458Z,10.10
2022-08-24T17:55:15.498Z,9.75
2022-08-24T17:56:51.326Z,9.52
2022-08-24T17:58:24.660Z,9.23
2022-08-24T17:59:57.554Z,9.13
2022-08-24T18:01:30.366Z,9.68
2022-08-24T18:03:02.706Z,9.18
2022-08-24T18:04:36.312Z,10.13
2022-08-24T18:06:08.697Z,9.82
2022-08-24T18:07:52.979Z,10.60
2022-08-24T18:09:35.328Z,10.10
2022-08-24T18:11:09.301Z,9.82
2022-08-24T18:12:41.574Z,10.13
2022-08-24T18:14:13.951Z,9.37
2022-08-24T18:15:46.619Z,9.25
2022-08-24T18:17:22.866Z,9.07
2022-08-24T18:18:55.620Z,10.13
2022-08-24T18:20:31.644Z,10.18
2022-08-24T18:22:05.144Z,10.43
2022-08-24T18:23:43.629Z,9.60
2022-08-24T18:25:18.163Z,9.50
2022-08-24T18:26:50.688Z,9.40
2022-08-24T18:28:23.658Z,10.35
2022-08-24T18:29:59.541Z,10.00
2022-08-24T18:31:36.008Z,9.48
2022-08-24T18:33:08.639Z,9.20
2022-08-24T18:34:41.387Z,9.68
2022-08-24T18:36:13.575Z,10.00
2022-08-24T18:37:46.092Z,9.80
2022-08-24T18:39:19.380Z,9.80
2022-08-24T18:40:52.716Z,10.15
2022-08-24T18:42:26.424Z,9.45
2022-08-24T18:43:59.733Z,10.32
2022-08-24T18:45:33.785Z,9.35
2022-08-24T18:47:06.890Z,10.10
2022-08-24T18:48:39.120Z,10.27
2022-08-24T18:50:12.074Z,9.18
2022-08-24T18:51:49.585Z,9.55
2022-08-24T18:53:24.466Z,9.93
2022-08-24T18:54:57.092Z,10.20
2022-08-24T18:56:29.344Z,9.60
2022-08-24T18:58:01.652Z,10.02
2022-08-24T18:59:35.799Z,9.77
2022-08-24T19:01:13.366Z,9.63
2022-08-24T19:02:46.030Z,9.43
2022-08-24T19:04:18.533Z,9.95
2022-08-24T19:05:56.093Z,9.95
2022-08-24T19:07:30.286Z,9.57
2022-08-24T19:09:02.297Z,9.63
2022-08-24T19:10:37.339Z,10.32
2022-08-24T19:12:10.002Z,9.50
2022-08-24T19:13:42.224Z,10.02
2022-08-24T19:15:29.188Z,9.52
2022-08-24T19:17:08.266Z,10.40
2022-08-24T19:18:40.504Z,10.98
2022-08-24T19:20:13.307Z,10.27
2022-08-24T19:21:45.661Z,10.10
2022-08-24T19:23:23.938Z,10.70
2022-08-24T19:24:56.544Z,10.23
2022-08-24T19:26:29.951Z,10.20
2022-08-24T19:28:02.287Z,9.93
2022-08-24T19:30:03.114Z,10.70
2022-08-24T19:31:29.099Z,9.88
2022-08-24T19:33:02.448Z,10.05
2022-08-24T19:34:34.825Z,9.52
2022-08-24T19:36:07.546Z,10.00
2022-08-24T19:37:40.264Z,9.48
2022-08-24T19:39:12.602Z,11.00
2022-08-24T19:40:49.874Z,10.30
2022-08-24T19:42:22.477Z,9.90
2022-08-24T19:44:23.398Z,10.98
2022-08-24T19:46:03.473Z,10.55
2022-08-24T19:47:35.987Z,10.27
2022-08-24T19:49:08.687Z,10.27
2022-08-24T19:50:41.237Z,10.57
2022-08-24T19:52:14.078Z,10.30
2022-08-24T19:53:46.545Z,10.00
2022-08-24T19:55:18.630Z,10.40
2022-08-24T19:56:53.383Z,9.45
2022-08-24T19:58:39.372Z,9.90
2022-08-24T20:00:29.924Z,9.00
2022-08-24T20:02:02.165Z,9.88
2022-08-24T20:03:34.511Z,10.25
2022-08-24T20:05:07.026Z,9.02
2022-08-24T20:06:41.210Z,9.77
2022-08-24T20:08:14.504Z,10.60
2022-08-24T20:09:46.520Z,10.55
2022-08-24T20:11:19.393Z,10.38
2022-08-24T20:12:52.326Z,9.90
2022-08-24T20:14:25.134Z,10.70
2022-08-24T20:15:58.219Z,10.10
2022-08-24T20:17:30.695Z,10.38
2022-08-24T20:19:04.056Z,10.55
2022-08-24T20:20:36.559Z,10.70
2022-08-24T20:22:13.244Z,9.65
2022-08-24T20:23:46.023Z,10.05
2022-08-24T20:25:19.042Z,10.03
2022-08-24T20:26:51.703Z,9.93
2022-08-24T20:28:29.065Z,9.50
2022-08-24T20:30:01.819Z,10.75
2022-08-24T20:31:35.233Z,10.40
2022-08-24T20:33:15.170Z,10.18
2022-08-24T20:34:47.335Z,10.90
2022-08-24T20:36:25.320Z,9.55
2022-08-24T20:37:57.501Z,9.85
2022-08-24T20:39:29.505Z,9.88
2022-08-24T20:41:02.399Z,9.65
2022-08-24T20:42:34.687Z,9.35
2022-08-24T20:44:09.914Z,9.77
2022-08-24T20:45:42.566Z,10.57
2022-08-24T20:47:15.607Z,10.25
2022-08-24T20:48:55.696Z,10.85
2022-08-24T20:50:29.925Z,9.85
2022-08-24T20:52:01.946Z,11.00
2022-08-24T20:53:35.766Z,10.10
2022-08-24T20:55:08.268Z,10.00
2022-08-24T20:56:40.364Z,9.95
2022-08-24T20:58:12.807Z,10.55
2022-08-24T20:59:45.654Z,9.98
2022-08-24T21:01:18.798Z,10.95
2022-08-24T21:02:52.229Z,9.90
2022-08-24T21:04:25.655Z,11.13
2022-08-24T21:06:01.482Z,11.30
2022-08-24T21:07:33.762Z,10.30
2022-08-24T21:09:06.760Z,11.03
2022-08-24T21:10:42.807Z,9.88
